Time;durP1;ratioP1;P1;durP2;ratioP2;P2;SDS_P1;SDS_P2;PMS_P1;PMS_P2;Temp;Humidity;BMP_temperature;BMP_pressure;BME280_temperature;BME280_humidity;BME280_pressure;Samples;Min_cycle;Max_cycle;Signal;HPM_P1;HPM_P2
2022/04/19 00:01:43;;;;;;;1.97;1.77;;;4.50;79.60;4.40;100395.00;;;;4873250;28;92970;-72
2022/04/19 00:04:08;;;;;;;5.57;1.93;;;4.50;80.00;4.30;100397.00;;;;4857353;28;93125;-72
2022/04/19 00:06:35;;;;;;;1.37;1.20;;;4.50;80.40;4.30;100390.00;;;;4855627;28;104937;-71
2022/04/19 00:09:03;;;;;;;1.70;1.60;;;4.50;81.00;4.30;100391.00;;;;4859597;28;93032;-72
2022/04/19 00:11:28;;;;;;;2.10;1.90;;;4.50;81.60;4.30;100387.00;;;;4855001;28;101206;-72
2022/04/19 00:14:10;;;;;;;2.40;1.47;;;4.50;82.10;4.40;100391.00;;;;4854924;28;108289;-72
2022/04/19 00:16:36;;;;;;;2.40;1.60;;;4.60;82.60;4.40;100379.00;;;;4856751;28;93822;-72
2022/04/19 00:19:02;;;;;;;1.33;1.00;;;4.50;82.90;4.30;100382.00;;;;4857477;28;94699;-72
2022/04/19 00:21:28;;;;;;;2.13;1.67;;;4.60;83.20;4.30;100391.00;;;;4876374;28;110456;-72
2022/04/19 00:23:54;;;;;;;1.93;1.53;;;4.50;83.70;4.30;100386.00;;;;4877608;28;93099;-72
2022/04/19 00:26:21;;;;;;;1.87;1.10;;;4.50;84.10;4.30;100384.00;;;;4876975;28;98137;-72
2022/04/19 00:28:46;;;;;;;1.73;1.33;;;4.80;84.80;4.30;100383.00;;;;4876095;28;93351;-72
2022/04/19 00:31:12;;;;;;;1.03;0.93;;;4.50;85.80;4.30;100380.00;;;;4876738;28;110332;-72
2022/04/19 00:33:44;;;;;;;1.87;1.50;;;4.60;85.60;4.30;100384.00;;;;4876463;28;108258;-72
2022/04/19 00:36:11;;;;;;;1.77;0.80;;;4.50;86.00;4.40;100375.00;;;;4876794;28;93231;-72
2022/04/19 00:38:36;;;;;;;2.40;1.20;;;4.50;86.60;4.40;100371.00;;;;4876659;28;94656;-72
2022/04/19 00:41:02;;;;;;;1.23;0.97;;;4.60;87.30;4.40;100381.00;;;;4876029;28;110207;-72
2022/04/19 00:43:28;;;;;;;1.47;1.20;;;4.60;87.40;4.50;100373.00;;;;4876975;28;92976;-72
2022/04/19 00:45:53;;;;;;;5.67;1.53;;;4.60;87.80;4.50;100366.00;;;;4876569;28;93803;-72
2022/04/19 00:48:21;;;;;;;1.03;1.03;;;4.70;87.90;4.50;100365.00;;;;4857869;28;121099;-72
2022/04/19 00:50:50;;;;;;;1.13;0.97;;;4.70;88.00;4.60;100357.00;;;;4858483;28;92851;-72
2022/04/19 00:53:17;;;;;;;2.17;1.27;;;4.70;88.10;4.60;100353.00;;;;4859654;28;93199;-72
2022/04/19 00:55:44;;;;;;;1.27;1.00;;;4.70;88.20;4.70;100360.00;;;;4858204;28;94006;-72
2022/04/19 00:58:10;;;;;;;1.60;1.50;;;4.80;88.50;4.70;100340.00;;;;4873402;28;92160;-72
2022/04/19 01:00:35;;;;;;;2.67;1.67;;;4.80;88.60;4.70;100341.00;;;;4876491;28;92640;-72
2022/04/19 01:03:02;;;;;;;1.87;1.17;;;5.00;88.60;4.70;100334.00;;;;4858009;28;92883;-72
2022/04/19 01:05:28;;;;;;;0.60;0.60;;;4.80;88.60;4.80;100334.00;;;;4875639;28;95567;-72
2022/04/19 01:07:54;;;;;;;1.13;1.00;;;4.90;88.70;4.80;100324.00;;;;4868482;28;94809;-72
2022/04/19 01:10:19;;;;;;;1.50;1.23;;;5.00;89.00;4.80;100331.00;;;;4875792;28;108186;-72
2022/04/19 01:15:29;;;;;;;3.83;1.30;;;5.00;89.50;4.80;100324.00;;;;4873114;28;92860;-72
2022/04/19 01:17:57;;;;;;;1.27;1.17;;;5.00;89.40;4.80;100331.00;;;;4866029;28;110710;-72
2022/04/19 01:20:23;;;;;;;2.00;1.10;;;5.00;89.60;4.90;100333.00;;;;4868195;28;110359;-72
2022/04/19 01:22:50;;;;;;;1.53;1.10;;;5.20;89.90;4.90;100316.00;;;;4895231;28;107596;-72
2022/04/19 01:25:18;;;;;;;1.93;1.50;;;5.00;90.00;5.00;100321.00;;;;4895529;28;94030;-72
2022/04/19 01:27:45;;;;;;;1.73;1.00;;;5.10;90.10;5.00;100318.00;;;;4864810;28;92908;-72
2022/04/19 01:30:11;;;;;;;1.40;1.20;;;5.10;90.00;5.10;100334.00;;;;4876211;28;93824;-72
2022/04/19 01:32:37;;;;;;;2.13;0.87;;;5.60;90.40;5.10;100315.00;;;;4868033;28;108384;-72
2022/04/19 01:35:15;;;;;;;1.90;1.17;;;5.20;90.00;5.20;100316.00;;;;4842340;28;101531;-72
2022/04/19 01:37:48;;;;;;;1.17;0.93;;;5.30;90.00;5.20;100319.00;;;;4858353;28;93392;-72
2022/04/19 01:40:17;;;;;;;2.87;1.60;;;5.40;90.10;5.30;100311.00;;;;4876535;28;93146;-72
2022/04/19 01:42:59;;;;;;;2.50;1.20;;;5.50;90.10;5.30;100311.00;;;;4875227;28;92917;-72
2022/04/19 01:45:28;;;;;;;1.37;1.27;;;5.50;90.10;5.40;100322.00;;;;4842081;28;92931;-72
2022/04/19 01:47:56;;;;;;;1.10;1.00;;;5.90;90.10;5.40;100311.00;;;;4856813;28;93811;-72
2022/04/19 01:50:26;;;;;;;1.57;1.10;;;5.50;90.10;5.40;100308.00;;;;4857143;28;92834;-72
2022/04/19 01:52:52;;;;;;;2.03;1.20;;;5.80;90.20;5.40;100310.00;;;;4875434;28;92852;-73
2022/04/19 01:55:20;;;;;;;1.30;1.20;;;5.50;90.20;5.40;100307.00;;;;4841545;28;95322;-72
2022/04/19 01:57:58;;;;;;;1.60;0.90;;;5.50;90.20;5.40;100302.00;;;;4888737;28;94188;-72
2022/04/19 02:00:31;;;;;;;1.00;0.90;;;5.60;90.30;5.50;100302.00;;;;4895182;28;92748;-72
2022/04/19 02:02:57;;;;;;;5.20;1.43;;;5.60;90.30;5.50;100291.00;;;;4895410;28;92900;-72
2022/04/19 02:05:24;;;;;;;6.70;1.93;;;6.10;90.50;5.50;100291.00;;;;4895570;28;94398;-72
2022/04/19 02:07:50;;;;;;;2.70;1.47;;;6.00;90.40;5.50;100289.00;;;;4894530;28;112255;-72
2022/04/19 02:10:18;;;;;;;3.00;1.50;;;5.70;90.40;5.50;100283.00;;;;4895390;28;93451;-72
2022/04/19 02:12:43;;;;;;;1.77;1.40;;;5.70;90.40;5.50;100288.00;;;;4895529;28;92074;-72
2022/04/19 02:15:11;;;;;;;1.50;0.93;;;5.60;90.40;5.50;100285.00;;;;4877619;28;113653;-72
2022/04/19 02:17:50;;;;;;;1.40;1.07;;;5.70;90.40;5.50;100283.00;;;;4875485;28;93816;-72
2022/04/19 02:20:17;;;;;;;3.30;1.20;;;6.00;90.60;5.50;100283.00;;;;4844345;28;93767;-72
2022/04/19 02:22:44;;;;;;;1.20;1.10;;;5.70;90.50;5.50;100273.00;;;;4878148;28;92911;-72
2022/04/19 02:25:11;;;;;;;3.37;1.70;;;5.60;90.50;5.50;100277.00;;;;4875856;28;93882;-72
2022/04/19 02:27:40;;;;;;;4.83;1.73;;;6.10;90.70;5.40;100283.00;;;;4874094;28;110372;-72
2022/04/19 02:30:13;;;;;;;2.73;1.73;;;5.60;90.70;5.40;100286.00;;;;4858554;28;93015;-72
2022/04/19 02:32:40;;;;;;;2.00;1.57;;;5.60;90.70;5.40;100288.00;;;;4842778;28;93066;-72
2022/04/19 02:35:06;;;;;;;2.30;1.40;;;5.50;90.80;5.30;100297.00;;;;4875472;28;93760;-71
2022/04/19 02:37:32;;;;;;;1.53;1.43;;;5.50;90.90;5.40;100293.00;;;;4874420;28;123412;-72
2022/04/19 02:39:58;;;;;;;3.10;1.93;;;5.70;91.10;5.40;100285.00;;;;4873756;28;109326;-72
2022/04/19 02:42:24;;;;;;;1.83;1.43;;;5.50;91.20;5.40;100293.00;;;;4856844;28;107238;-72
2022/04/19 02:44:50;;;;;;;1.60;1.10;;;5.50;91.30;5.50;100298.00;;;;4874402;28;100839;-72
2022/04/19 02:47:17;;;;;;;1.87;1.77;;;5.60;91.50;5.50;100293.00;;;;4873244;28;93764;-72
2022/04/19 02:49:45;;;;;;;2.10;1.27;;;5.60;91.60;5.50;100295.00;;;;4856759;28;103197;-72
2022/04/19 02:52:11;;;;;;;1.80;1.20;;;5.60;91.90;5.50;100288.00;;;;4875266;28;92727;-72
2022/04/19 02:54:37;;;;;;;1.30;1.20;;;5.70;91.90;5.50;100281.00;;;;4875308;28;93288;-72
2022/04/19 02:57:04;;;;;;;2.07;1.43;;;5.60;91.90;5.50;100275.00;;;;4873971;28;122063;-71
2022/04/19 02:59:30;;;;;;;2.50;1.33;;;5.60;92.00;5.40;100286.00;;;;4874021;28;92807;-71
2022/04/19 03:01:55;;;;;;;2.27;1.40;;;5.60;92.00;5.40;100274.00;;;;4874208;28;109667;-71
2022/04/19 03:04:24;;;;;;;2.63;1.80;;;5.50;92.10;5.40;100270.00;;;;4873502;28;122441;-72
2022/04/19 03:06:50;;;;;;;2.03;1.13;;;5.50;92.40;5.30;100263.00;;;;4873702;28;122568;-72
2022/04/19 03:09:15;;;;;;;1.63;1.50;;;5.80;92.50;5.30;100278.00;;;;4874929;28;93822;-72
2022/04/19 03:11:41;;;;;;;1.80;1.70;;;5.60;92.50;5.20;100274.00;;;;4873842;28;108693;-72
2022/04/19 03:14:07;;;;;;;3.70;2.57;;;5.40;92.50;5.20;100266.00;;;;4873144;28;93850;-73
2022/04/19 03:16:33;;;;;;;4.37;2.33;;;5.30;92.60;5.10;100268.00;;;;4855009;28;92757;-71
2022/04/19 03:18:59;;;;;;;2.60;1.60;;;5.70;92.80;5.10;100271.00;;;;4874218;28;110290;-72
2022/04/19 03:21:24;;;;;;;6.67;2.67;;;5.20;92.80;5.10;100265.00;;;;4874065;28;105032;-72
2022/04/19 03:29:19;;;;;;;8.80;4.80;;;5.20;93.30;5.10;100256.00;;;;4872261;28;93072;-72
2022/04/19 03:31:45;;;;;;;4.17;3.77;;;5.20;93.40;5.10;100261.00;;;;4874649;28;92796;-72
2022/04/19 03:34:11;;;;;;;7.70;4.30;;;5.20;93.50;5.10;100264.00;;;;4874441;28;95037;-71
2022/04/19 03:36:37;;;;;;;8.23;4.50;;;5.20;93.50;5.00;100261.00;;;;4856522;28;94173;-71
2022/04/19 03:39:03;;;;;;;4.57;2.83;;;5.20;93.50;5.00;100255.00;;;;4874620;28;110800;-71
2022/04/19 03:41:28;;;;;;;5.37;2.83;;;5.20;93.80;5.10;100252.00;;;;4873569;28;100633;-71
2022/04/19 03:43:55;;;;;;;4.90;3.30;;;5.20;94.00;5.10;100260.00;;;;4855773;28;122547;-72
2022/04/19 03:46:20;;;;;;;4.00;2.43;;;5.30;94.00;5.20;100256.00;;;;4874463;28;92956;-72
2022/04/19 03:48:46;;;;;;;3.70;2.57;;;5.30;94.10;5.20;100255.00;;;;4873796;28;102740;-71
2022/04/19 03:51:12;;;;;;;2.93;1.97;;;5.30;94.20;5.20;100255.00;;;;4876388;28;92176;-72
2022/04/19 03:53:38;;;;;;;2.10;1.90;;;5.30;94.20;5.20;100261.00;;;;4876233;28;123023;-72
2022/04/19 03:56:20;;;;;;;2.50;1.77;;;5.30;94.30;5.10;100261.00;;;;4836384;28;94863;-72
2022/04/19 03:58:46;;;;;;;1.73;1.60;;;5.30;94.40;5.10;100279.00;;;;4840339;28;93737;-72
2022/04/19 04:01:12;;;;;;;4.70;2.37;;;5.30;94.50;5.20;100267.00;;;;4858100;28;108307;-72
2022/04/19 04:03:38;;;;;;;2.50;1.80;;;5.40;94.70;5.20;100261.00;;;;4858543;28;94168;-72
2022/04/19 04:06:04;;;;;;;3.13;1.93;;;5.30;94.80;5.20;100262.00;;;;4863316;28;122496;-71
2022/04/19 04:08:29;;;;;;;1.73;1.10;;;5.30;94.90;5.20;100269.00;;;;4877643;28;109159;-72
2022/04/19 04:10:55;;;;;;;1.53;1.00;;;5.30;95.00;5.10;100263.00;;;;4876581;28;109306;-72
2022/04/19 04:13:21;;;;;;;1.77;1.53;;;5.30;95.20;5.10;100262.00;;;;4875879;28;122258;-71
2022/04/19 04:15:47;;;;;;;2.13;1.47;;;5.30;95.40;5.10;100275.00;;;;4877934;28;93947;-72
2022/04/19 04:18:12;;;;;;;2.57;2.30;;;5.30;95.50;5.20;100264.00;;;;4877526;28;93008;-71
2022/04/19 04:20:38;;;;;;;1.83;1.73;;;5.30;95.60;5.20;100254.00;;;;4877637;28;92800;-71
2022/04/19 04:23:04;;;;;;;3.63;1.80;;;5.30;95.80;5.20;100253.00;;;;4876936;28;123704;-71
2022/04/19 04:25:29;;;;;;;1.77;1.67;;;5.30;96.00;5.20;100260.00;;;;4876028;28;94571;-72
2022/04/19 04:27:55;;;;;;;2.63;1.70;;;5.30;96.10;5.10;100267.00;;;;4875891;28;109873;-72
2022/04/19 04:30:21;;;;;;;2.40;1.73;;;5.30;96.20;5.10;100272.00;;;;4876826;28;108269;-72
2022/04/19 04:32:46;;;;;;;6.37;2.00;;;5.30;96.30;5.10;100269.00;;;;4842579;28;122859;-71
2022/04/19 04:35:12;;;;;;;2.93;2.10;;;5.30;96.40;5.10;100269.00;;;;4877478;28;92869;-72
2022/04/19 04:37:38;;;;;;;2.73;1.90;;;5.30;96.60;5.10;100279.00;;;;4877039;28;92881;-72
2022/04/19 04:40:04;;;;;;;1.80;1.50;;;5.30;96.60;5.10;100278.00;;;;4871452;28;108967;-72
2022/04/19 04:42:30;;;;;;;7.20;1.80;;;5.30;96.60;5.20;100288.00;;;;4839559;28;95779;-71
2022/04/19 04:44:56;;;;;;;3.23;2.27;;;5.30;96.70;5.20;100271.00;;;;4857263;28;123341;-71
2022/04/19 04:50:08;;;;;;;1.77;1.60;;;5.40;96.70;5.30;100267.00;;;;4865829;28;93160;-71
2022/04/19 04:52:33;;;;;;;9.33;2.23;;;5.40;96.70;5.30;100274.00;;;;4840127;28;96360;-71
2022/04/19 04:55:05;;;;;;;1.93;1.50;;;5.40;96.50;5.30;100271.00;;;;4858989;28;93562;-72
2022/04/19 04:57:31;;;;;;;2.43;1.83;;;5.40;96.50;5.30;100284.00;;;;4876408;28;92705;-71
2022/04/19 04:59:57;;;;;;;4.00;1.40;;;5.50;96.70;5.50;100273.00;;;;4877612;28;93006;-73
2022/04/19 05:02:23;;;;;;;5.93;1.97;;;5.50;96.80;5.60;100275.00;;;;4877465;28;92931;-72
2022/04/19 05:04:49;;;;;;;1.97;1.63;;;5.60;96.70;5.70;100271.00;;;;4879678;28;93079;-72
2022/04/19 05:07:15;;;;;;;3.00;1.80;;;6.00;96.70;5.90;100275.00;;;;4876565;28;108670;-73
2022/04/19 05:09:41;;;;;;;4.30;2.30;;;5.90;96.40;6.10;100265.00;;;;4873881;28;92898;-71
2022/04/19 05:12:07;;;;;;;1.80;1.60;;;6.10;96.20;6.30;100267.00;;;;4871562;28;123780;-71
2022/04/19 05:14:33;;;;;;;2.90;1.77;;;6.30;95.90;6.40;100274.00;;;;4853703;28;94010;-72
2022/04/19 05:16:58;;;;;;;5.07;1.73;;;6.40;95.40;6.50;100261.00;;;;4870003;28;110061;-72
2022/04/19 05:19:24;;;;;;;4.70;2.13;;;6.60;95.00;6.60;100265.00;;;;4868259;28;108624;-73
2022/04/19 05:21:49;;;;;;;1.97;1.57;;;6.70;94.70;6.60;100264.00;;;;4871637;28;122196;-72
2022/04/19 05:24:15;;;;;;;1.67;1.50;;;6.70;94.20;6.60;100265.00;;;;4871774;28;122125;-72
2022/04/19 05:26:47;;;;;;;2.97;1.53;;;6.70;93.80;6.60;100259.00;;;;4872131;28;108706;-72
2022/04/19 05:29:12;;;;;;;5.17;2.13;;;6.70;93.60;6.60;100257.00;;;;4866335;28;108112;-73
2022/04/19 05:31:38;;;;;;;4.90;1.90;;;6.70;93.40;6.50;100269.00;;;;4870630;28;123331;-72
2022/04/19 05:34:04;;;;;;;3.40;2.03;;;6.70;93.30;6.50;100265.00;;;;4871182;28;93449;-72
2022/04/19 05:36:29;;;;;;;1.83;1.70;;;6.60;93.30;6.50;100266.00;;;;4871364;28;110506;-73
2022/04/19 05:38:55;;;;;;;2.83;2.13;;;6.60;93.30;6.70;100266.00;;;;4872912;28;92991;-72
2022/04/19 05:41:21;;;;;;;3.27;2.07;;;6.80;93.40;6.80;100265.00;;;;4870069;28;103903;-72
2022/04/19 05:43:48;;;;;;;2.47;1.67;;;6.80;93.20;6.90;100263.00;;;;4872011;28;93930;-73
2022/04/19 05:46:16;;;;;;;4.43;2.40;;;7.00;93.00;7.10;100266.00;;;;4851046;28;93138;-73
2022/04/19 05:48:43;;;;;;;2.63;1.53;;;7.40;92.70;7.20;100286.00;;;;4872621;28;93062;-72
2022/04/19 05:51:10;;;;;;;2.97;1.80;;;7.20;92.20;7.20;100288.00;;;;4870676;28;93327;-72
2022/04/19 05:53:35;;;;;;;2.50;1.93;;;7.30;91.90;7.30;100291.00;;;;4854619;28;92861;-72
2022/04/19 05:56:01;;;;;;;3.17;2.20;;;7.30;91.50;7.30;100293.00;;;;4869455;28;110364;-72
2022/04/19 05:58:27;;;;;;;1.87;1.67;;;7.40;91.30;7.30;100284.00;;;;4872585;28;92995;-71
2022/04/19 06:00:52;;;;;;;2.67;1.67;;;7.40;91.10;7.30;100283.00;;;;4871876;28;94567;-72
2022/04/19 06:06:05;;;;;;;3.43;1.77;;;7.80;90.50;7.30;100293.00;;;;4870080;28;92776;-71
2022/04/19 06:08:31;;;;;;;2.63;1.97;;;7.40;90.30;7.30;100289.00;;;;4871373;28;93183;-73
2022/04/19 06:10:57;;;;;;;2.30;2.03;;;7.40;90.20;7.40;100292.00;;;;4868938;28;122371;-72
2022/04/19 06:13:22;;;;;;;2.77;1.90;;;7.50;90.00;7.40;100296.00;;;;4866938;28;121621;-72
2022/04/19 06:15:48;;;;;;;2.20;1.73;;;7.50;89.60;7.40;100300.00;;;;4871543;28;109813;-74
2022/04/19 06:18:14;;;;;;;2.10;1.63;;;7.50;89.20;7.40;100305.00;;;;4854419;28;108829;-70
2022/04/19 06:20:40;;;;;;;2.83;2.00;;;7.50;88.80;7.50;100300.00;;;;4870623;28;115828;-72
2022/04/19 06:23:06;;;;;;;3.23;1.57;;;7.50;88.00;7.50;100302.00;;;;4871776;28;93215;-71
2022/04/19 06:25:32;;;;;;;1.80;1.20;;;7.50;87.30;7.50;100308.00;;;;4870507;28;109266;-72
2022/04/19 06:28:00;;;;;;;4.17;1.57;;;7.60;87.20;7.60;100305.00;;;;4869599;28;110203;-71
2022/04/19 06:30:26;;;;;;;1.90;1.67;;;7.60;86.90;7.60;100316.00;;;;4869506;28;121651;-70
2022/04/19 06:32:52;;;;;;;2.77;1.77;;;7.70;85.90;7.70;100317.00;;;;4870473;28;120167;-72
2022/04/19 06:35:18;;;;;;;2.63;1.77;;;7.70;85.60;7.80;100314.00;;;;4854644;28;92774;-71
2022/04/19 06:37:44;;;;;;;2.73;1.50;;;7.80;85.30;7.90;100313.00;;;;4871609;28;92979;-73
2022/04/19 06:40:11;;;;;;;1.67;1.57;;;7.90;83.50;8.00;100310.00;;;;4867259;28;122600;-71
2022/04/19 06:42:36;;;;;;;2.00;1.80;;;8.00;82.20;8.00;100306.00;;;;4865080;28;112785;-74
2022/04/19 06:45:04;;;;;;;2.33;1.83;;;8.00;81.70;8.10;100301.00;;;;4871902;28;92900;-71
2022/04/19 06:47:29;;;;;;;2.53;1.87;;;8.10;81.50;8.30;100311.00;;;;4871725;28;92981;-71
2022/04/19 06:49:58;;;;;;;3.37;2.17;;;8.20;81.10;8.40;100310.00;;;;4868283;28;123847;-72
2022/04/19 06:52:24;;;;;;;1.57;1.47;;;8.40;80.50;8.60;100313.00;;;;4871594;28;93079;-70
2022/04/19 06:54:50;;;;;;;3.40;1.93;;;8.50;78.90;8.80;100305.00;;;;4871320;28;92890;-72
2022/04/19 06:57:16;;;;;;;3.57;2.03;;;8.70;76.60;8.90;100303.00;;;;4869503;28;92871;-71
2022/04/19 06:59:42;;;;;;;2.40;1.77;;;8.80;74.70;9.20;100300.00;;;;4852414;28;122811;-70
2022/04/19 07:02:07;;;;;;;2.07;1.10;;;9.00;73.50;9.50;100309.00;;;;4869743;28;122047;-72
2022/04/19 07:04:33;;;;;;;1.77;1.53;;;9.30;72.70;9.80;100294.00;;;;4870880;28;106292;-72
2022/04/19 07:07:01;;;;;;;1.40;1.30;;;9.60;71.30;10.00;100297.00;;;;4854149;28;92249;-71
2022/04/19 07:09:26;;;;;;;2.20;1.80;;;9.90;68.10;10.20;100298.00;;;;4867340;28;93751;-72
2022/04/19 07:11:52;;;;;;;2.40;1.60;;;10.00;65.90;10.20;100302.00;;;;4837550;28;94113;-72
2022/04/19 07:14:18;;;;;;;1.97;1.30;;;10.10;65.20;10.30;100310.00;;;;4870266;28;93738;-72
2022/04/19 07:16:43;;;;;;;3.20;1.67;;;10.20;64.20;10.30;100313.00;;;;4871253;28;109181;-72
2022/04/19 07:19:09;;;;;;;6.83;1.93;;;10.30;64.50;10.40;100325.00;;;;4870404;28;116052;-70
2022/04/19 07:27:03;;;;;;;2.40;1.70;;;10.50;63.80;10.50;100326.00;;;;4872477;28;93276;-70
2022/04/19 07:29:29;;;;;;;1.53;1.23;;;10.50;62.40;10.50;100314.00;;;;4869548;28;103039;-70
2022/04/19 07:31:56;;;;;;;3.17;1.30;;;10.50;62.60;10.60;100330.00;;;;4873935;28;123446;-71
2022/04/19 07:34:22;;;;;;;2.97;1.37;;;10.60;62.70;10.60;100313.00;;;;4875063;28;92996;-71
2022/04/19 07:36:48;;;;;;;4.73;1.90;;;10.60;61.40;10.70;100311.00;;;;4874763;28;93009;-71
2022/04/19 07:39:14;;;;;;;2.37;1.73;;;10.60;60.70;10.70;100305.00;;;;4872895;28;124261;-71
2022/04/19 07:41:46;;;;;;;2.30;1.93;;;10.60;60.20;10.80;100304.00;;;;4872683;28;123905;-72
2022/04/19 07:44:14;;;;;;;2.60;1.40;;;10.70;60.40;10.90;100299.00;;;;4872834;28;92713;-73
2022/04/19 07:46:42;;;;;;;3.40;1.93;;;10.80;60.20;11.00;100306.00;;;;4856298;28;92823;-72
2022/04/19 07:49:08;;;;;;;1.60;1.50;;;10.80;58.60;11.10;100302.00;;;;4873497;28;94133;-72
2022/04/19 07:51:35;;;;;;;2.90;1.70;;;11.00;59.10;11.40;100312.00;;;;4873540;28;98408;-72
2022/04/19 07:54:01;;;;;;;1.63;1.30;;;11.20;59.30;11.90;100308.00;;;;4874039;28;92936;-71
2022/04/19 07:56:27;;;;;;;2.47;1.30;;;11.60;58.70;12.30;100308.00;;;;4870568;28;102481;-72
2022/04/19 07:58:53;;;;;;;2.50;1.67;;;12.00;58.00;12.80;100309.00;;;;4855864;28;93608;-71
2022/04/19 08:01:19;;;;;;;1.97;1.17;;;12.50;57.20;13.20;100316.00;;;;4872539;28;117142;-70
2022/04/19 08:03:45;;;;;;;1.80;1.40;;;12.90;56.20;13.60;100307.00;;;;4873361;28;93817;-70
2022/04/19 08:06:12;;;;;;;3.00;1.97;;;13.30;55.40;13.90;100313.00;;;;4874586;28;92991;-71
2022/04/19 08:08:38;;;;;;;4.10;1.70;;;13.60;54.90;14.20;100302.00;;;;4873055;28;92958;-69
2022/04/19 08:11:04;;;;;;;2.67;1.30;;;14.00;54.40;14.50;100297.00;;;;4855628;28;100805;-70
2022/04/19 08:13:30;;;;;;;3.50;1.53;;;14.30;53.20;14.80;100306.00;;;;4855270;28;110491;-71
2022/04/19 08:15:56;;;;;;;1.80;1.53;;;14.60;50.50;14.90;100306.00;;;;4874397;28;92910;-70
2022/04/19 08:18:22;;;;;;;2.77;1.97;;;14.70;49.20;15.00;100304.00;;;;4872890;28;122563;-70
2022/04/19 08:20:50;;;;;;;1.30;0.90;;;14.90;48.80;15.20;100299.00;;;;4873394;28;93780;-71
2022/04/19 08:23:15;;;;;;;1.43;1.00;;;15.00;48.50;15.40;100297.00;;;;4874380;28;92872;-72
2022/04/19 08:25:45;;;;;;;0.98;0.90;;;15.20;45.30;15.30;100310.00;;;;4873751;28;92941;-71
2022/04/19 08:28:11;;;;;;;4.65;1.48;;;15.30;45.90;15.40;100299.00;;;;4868103;28;94152;-72
2022/04/19 08:30:37;;;;;;;1.92;1.00;;;15.30;46.50;15.60;100303.00;;;;4872337;28;122743;-71
2022/04/19 08:33:02;;;;;;;1.75;1.25;;;15.50;45.50;15.70;100310.00;;;;4855679;28;98033;-76
2022/04/19 08:35:28;;;;;;;2.17;0.95;;;15.60;45.60;15.90;100295.00;;;;4853818;28;92928;-74
2022/04/19 08:37:54;;;;;;;1.48;1.10;;;15.70;45.80;16.10;100308.00;;;;4870909;28;123835;-73
2022/04/19 08:40:21;;;;;;;1.73;1.25;;;15.90;45.20;16.30;100305.00;;;;4854782;28;108630;-77
2022/04/19 08:42:47;;;;;;;1.08;1.08;;;16.10;44.80;16.40;100305.00;;;;4853508;28;96641;-73
2022/04/19 08:45:15;;;;;;;1.42;1.23;;;16.40;44.50;16.60;100300.00;;;;4851787;28;92211;-78
2022/04/19 08:47:47;;;;;;;3.40;1.58;;;16.40;44.10;16.70;100295.00;;;;4872568;28;93601;-78
2022/04/19 08:50:17;;;;;;;2.65;1.05;;;16.60;43.10;16.70;100308.00;;;;4869679;28;92802;-76
2022/04/19 08:52:47;;;;;;;1.77;1.20;;;16.60;42.30;16.60;100316.00;;;;4854519;28;93991;-75
2022/04/19 08:57:58;;;;;;;9.32;7.50;;;16.40;41.50;16.10;100310.00;;;;4855072;28;93321;-76
2022/04/19 09:00:24;;;;;;;4.40;3.50;;;16.20;41.90;16.00;100316.00;;;;4872371;28;96092;-74
2022/04/19 09:02:53;;;;;;;31.38;20.80;;;16.10;42.30;16.10;100318.00;;;;4872719;28;93129;-77
2022/04/19 09:05:21;;;;;;;7.25;6.57;;;16.00;42.30;16.20;100308.00;;;;4854769;28;92919;-78
2022/04/19 09:07:49;;;;;;;2.65;2.35;;;16.20;42.30;16.40;100323.00;;;;4854592;28;93439;-78
2022/04/19 09:10:30;;;;;;;1.70;1.60;;;16.20;41.40;16.60;100335.00;;;;4871694;28;93293;-75
2022/04/19 09:13:04;;;;;;;10.90;8.25;;;16.40;41.40;16.80;100317.00;;;;4871165;28;92740;-74
2022/04/19 09:15:45;;;;;;;5.28;2.97;;;16.60;40.10;16.90;100319.00;;;;4855129;28;93244;-75
2022/04/19 09:18:30;;;;;;;3.58;3.25;;;16.70;39.40;16.90;100332.00;;;;4837468;28;96371;-77
2022/04/19 09:21:06;;;;;;;3.20;2.65;;;16.70;39.80;17.20;100315.00;;;;4853591;28;93642;-75
2022/04/19 09:23:34;;;;;;;1.83;1.52;;;16.90;40.10;17.40;100320.00;;;;4854735;28;93113;-73
2022/04/19 09:26:05;;;;;;;2.63;2.00;;;17.10;40.20;17.60;100321.00;;;;4855228;28;93037;-74
2022/04/19 09:28:32;;;;;;;1.27;1.10;;;17.30;40.20;17.80;100317.00;;;;4871398;28;94101;-78
2022/04/19 09:31:00;;;;;;;1.65;1.05;;;17.40;39.90;17.90;100322.00;;;;4854414;28;93207;-73
2022/04/19 09:33:30;;;;;;;1.20;1.10;;;17.60;39.60;18.10;100325.00;;;;4852830;28;93061;-74
2022/04/19 09:36:04;;;;;;;3.42;2.47;;;17.80;38.90;18.20;100326.00;;;;4868218;28;92288;-74
2022/04/19 09:38:46;;;;;;;1.30;1.00;;;17.90;39.30;18.40;100318.00;;;;4853178;28;95596;-78
2022/04/19 09:41:29;;;;;;;1.85;1.02;;;18.10;39.00;18.60;100333.00;;;;4838030;28;94970;-76
2022/04/19 09:44:09;;;;;;;1.95;1.38;;;18.30;38.20;18.60;100325.00;;;;4867461;28;93871;-77
2022/04/19 09:46:36;;;;;;;3.35;1.48;;;18.30;38.10;18.70;100319.00;;;;4871913;28;99116;-78
2022/04/19 09:49:03;;;;;;;1.77;0.88;;;18.40;38.50;18.90;100322.00;;;;4851192;28;92981;-77
2022/04/19 09:51:36;;;;;;;1.27;1.00;;;18.50;38.10;19.00;100335.00;;;;4853290;28;92974;-77
2022/04/19 09:54:02;;;;;;;0.93;0.93;;;18.60;37.40;19.00;100322.00;;;;4854397;28;93013;-76
2022/04/19 09:56:36;;;;;;;1.60;1.15;;;18.70;36.10;19.10;100325.00;;;;4833212;28;92777;-74
2022/04/19 09:59:03;;;;;;;1.23;0.95;;;18.70;36.80;19.30;100330.00;;;;4852230;28;93731;-75
2022/04/19 10:09:35;;;;;;;0.60;0.60;;;19.10;36.30;19.30;100322.00;;;;4868589;28;93993;-75
2022/04/19 10:12:03;;;;;;;0.95;0.90;;;19.00;36.50;19.10;100332.00;;;;4869644;28;94429;-78
2022/04/19 10:14:30;;;;;;;1.15;0.73;;;18.90;37.00;18.90;100330.00;;;;4864030;28;92801;-75
2022/04/19 10:17:00;;;;;;;0.85;0.65;;;18.70;36.90;18.80;100334.00;;;;4871776;28;99286;-77
2022/04/19 10:19:27;;;;;;;1.30;0.88;;;18.50;36.30;18.40;100323.00;;;;4853264;28;95566;-74
2022/04/19 10:21:54;;;;;;;0.60;0.60;;;18.30;36.60;18.20;100325.00;;;;4836698;28;95029;-78
2022/04/19 10:24:20;;;;;;;1.65;1.20;;;18.00;36.70;17.90;100325.00;;;;4850925;28;93151;-78
2022/04/19 10:26:51;;;;;;;1.25;0.77;;;17.80;36.70;17.80;100331.00;;;;4837793;28;92126;-75
2022/04/19 10:29:22;;;;;;;1.83;0.63;;;17.60;37.30;17.80;100333.00;;;;4870553;28;93153;-75
2022/04/19 10:32:03;;;;;;;1.48;0.73;;;17.60;37.30;17.70;100336.00;;;;4852783;28;93383;-79
2022/04/19 10:34:44;;;;;;;1.90;0.88;;;17.50;37.60;17.50;100346.00;;;;4852997;28;94785;-78
2022/04/19 10:37:26;;;;;;;1.75;0.82;;;17.30;37.80;17.20;100338.00;;;;4854342;28;92860;-75
2022/04/19 10:40:07;;;;;;;1.20;1.10;;;17.10;37.60;16.90;100348.00;;;;4868909;28;93301;-77
2022/04/19 10:42:38;;;;;;;1.17;0.75;;;16.80;38.00;16.80;100341.00;;;;4852598;28;93213;-74
2022/04/19 10:45:12;;;;;;;1.55;0.75;;;16.70;37.90;16.60;100342.00;;;;4848969;28;93270;-74
2022/04/19 10:47:53;;;;;;;0.73;0.73;;;16.50;38.30;16.50;100337.00;;;;4869949;28;92893;-75
2022/04/19 10:50:33;;;;;;;0.73;0.50;;;16.40;38.50;16.40;100347.00;;;;4870358;28;93446;-76
2022/04/19 10:53:10;;;;;;;0.98;0.52;;;16.30;38.50;16.20;100346.00;;;;4868839;28;95497;-75
2022/04/19 10:55:43;;;;;;;1.80;0.60;;;16.10;38.60;16.00;100337.00;;;;4851682;28;93108;-75
2022/04/19 10:58:16;;;;;;;0.60;0.60;;;15.90;38.30;15.80;100346.00;;;;4836372;28;93029;-78
2022/04/19 11:00:52;;;;;;;0.60;0.52;;;15.70;38.80;15.60;100340.00;;;;4869608;28;94931;-76
2022/04/19 11:03:25;;;;;;;0.70;0.70;;;15.60;39.70;15.50;100335.00;;;;4852512;28;95690;-76
2022/04/19 11:05:54;;;;;;;1.27;0.80;;;15.50;40.30;15.40;100332.00;;;;4870427;28;92787;-75
2022/04/19 11:08:25;;;;;;;0.50;0.50;;;15.30;39.80;15.40;100341.00;;;;4869134;28;98665;-74
2022/04/19 11:10:57;;;;;;;1.50;0.80;;;15.30;40.10;15.30;100347.00;;;;4869621;28;123605;-75
2022/04/19 11:13:29;;;;;;;0.70;0.52;;;15.20;40.10;15.40;100338.00;;;;4870144;28;92958;-74
2022/04/19 11:16:05;;;;;;;2.90;0.95;;;15.20;40.30;15.70;100337.00;;;;4853252;28;92862;-73
2022/04/19 11:18:54;;;;;;;1.75;0.80;;;15.40;40.30;15.90;100337.00;;;;4869602;28;92176;-74
2022/04/19 11:21:47;;;;;;;1.17;0.85;;;15.60;40.30;16.20;100339.00;;;;4836859;28;94900;-75
2022/04/19 11:24:58;;;;;;;0.70;0.70;;;15.80;40.30;16.40;100340.00;;;;4853194;28;93218;-76
2022/04/19 11:27:52;;;;;;;0.82;0.82;;;16.10;40.20;16.50;100340.00;;;;4775080;29;94161;-75
2022/04/19 11:30:17;;;;;;;1.45;0.57;;;16.20;40.10;16.50;100339.00;;;;4868775;28;94397;-78